createdAt,value
2018-09-04T00:00:40.016Z,9.30
2018-09-04T00:03:08.185Z,12.07
2018-09-04T00:05:36.219Z,13.53
2018-09-04T00:08:04.450Z,8.83
2018-09-04T00:10:32.683Z,9.87
2018-09-04T00:13:00.906Z,14.23
2018-09-04T00:15:29.074Z,13.33
2018-09-04T00:17:57.171Z,11.83
2018-09-04T00:20:25.242Z,10.70
2018-09-04T00:22:53.411Z,10.33
2018-09-04T00:25:21.464Z,9.20
2018-09-04T00:27:49.576Z,12.53
2018-09-04T00:30:17.745Z,10.93
2018-09-04T00:32:45.900Z,11.63
2018-09-04T00:35:14.049Z,11.50
2018-09-04T00:37:42.157Z,10.50
2018-09-04T00:40:10.478Z,13.13
2018-09-04T00:42:38.805Z,11.50
2018-09-04T00:45:06.961Z,9.90
2018-09-04T00:47:34.994Z,12.57
2018-09-04T00:50:03.301Z,10.57
2018-09-04T00:52:31.524Z,15.50
2018-09-04T00:54:59.724Z,11.83
2018-09-04T00:57:27.804Z,13.70
2018-09-04T00:59:55.965Z,9.00
2018-09-04T01:02:24.083Z,12.17
2018-09-04T01:04:52.104Z,9.87
2018-09-04T01:07:20.095Z,10.17
2018-09-04T01:09:48.105Z,9.50
2018-09-04T01:12:16.244Z,9.90
2018-09-04T01:14:44.416Z,11.90
2018-09-04T01:17:12.464Z,10.27
2018-09-04T01:19:40.673Z,8.83
2018-09-04T01:22:08.738Z,11.87
2018-09-04T01:24:36.723Z,9.97
2018-09-04T01:27:04.846Z,9.60
2018-09-04T01:29:32.803Z,11.07
2018-09-04T01:32:00.767Z,10.70
2018-09-04T01:34:28.808Z,19.17
2018-09-04T01:36:56.822Z,12.03
2018-09-04T01:39:24.914Z,8.80
2018-09-04T01:41:53.003Z,9.63
2018-09-04T01:44:20.990Z,11.23
2018-09-04T01:46:49.049Z,10.67
2018-09-04T01:49:17.101Z,11.30
2018-09-04T01:51:45.164Z,14.90
2018-09-04T01:54:13.272Z,8.40
2018-09-04T01:56:41.466Z,10.50
2018-09-04T01:59:09.755Z,13.37
2018-09-04T02:01:37.921Z,14.33
2018-09-04T02:04:06.300Z,15.13
2018-09-04T02:06:34.340Z,9.60
2018-09-04T02:09:02.613Z,13.73
2018-09-04T02:11:30.704Z,12.50
2018-09-04T02:13:59.001Z,12.70
2018-09-04T02:16:27.215Z,10.93
2018-09-04T02:18:55.213Z,13.13
2018-09-04T02:21:23.313Z,11.53
2018-09-04T02:23:51.354Z,15.13
2018-09-04T02:26:19.437Z,13.77
2018-09-04T02:28:47.507Z,12.10
2018-09-04T02:31:15.560Z,14.33
2018-09-04T02:33:44.890Z,15.67
2018-09-04T02:36:13.014Z,12.13
2018-09-04T02:38:41.029Z,11.57
2018-09-04T02:41:09.208Z,15.23
2018-09-04T02:43:37.271Z,12.77
2018-09-04T02:46:05.723Z,17.67
2018-09-04T02:48:34.012Z,21.60
2018-09-04T02:51:02.130Z,16.13
2018-09-04T02:53:30.267Z,19.33
2018-09-04T02:55:58.762Z,20.67
2018-09-04T02:58:26.895Z,20.53
2018-09-04T03:00:55.230Z,19.63
2018-09-04T03:03:23.351Z,21.43
2018-09-04T03:05:51.537Z,18.77
2018-09-04T03:08:19.625Z,19.00
2018-09-04T03:10:47.742Z,20.47
2018-09-04T03:13:15.762Z,23.73
2018-09-04T03:15:43.981Z,17.40
2018-09-04T03:18:12.280Z,17.00
2018-09-04T03:20:40.530Z,17.83
2018-09-04T03:23:08.764Z,17.40
2018-09-04T03:25:37.017Z,20.23
2018-09-04T03:28:05.243Z,17.57
2018-09-04T03:30:33.512Z,15.10
2018-09-04T03:33:01.490Z,17.53
2018-09-04T03:35:29.537Z,16.10
2018-09-04T03:37:57.565Z,15.67
2018-09-04T03:40:25.749Z,14.20
2018-09-04T03:42:53.924Z,15.63
2018-09-04T03:45:22.021Z,12.10
2018-09-04T03:47:50.412Z,14.90
2018-09-04T03:50:18.559Z,13.50
2018-09-04T03:52:46.857Z,12.67
2018-09-04T03:55:15.388Z,13.17
2018-09-04T03:57:43.643Z,13.20
2018-09-04T04:00:12.280Z,14.87
2018-09-04T04:02:40.844Z,16.90
2018-09-04T04:05:09.413Z,11.53
2018-09-04T04:07:37.737Z,16.67
2018-09-04T04:10:06.149Z,16.20
2018-09-04T04:12:34.486Z,14.07
2018-09-04T04:15:03.031Z,16.30
2018-09-04T04:17:31.398Z,21.80
2018-09-04T04:19:59.721Z,20.43
2018-09-04T04:22:28.045Z,19.17
2018-09-04T04:24:56.368Z,19.73
2018-09-04T04:27:24.674Z,19.43
2018-09-04T04:29:52.977Z,18.43
2018-09-04T04:32:21.473Z,16.83
2018-09-04T04:34:49.739Z,16.47
2018-09-04T04:37:18.033Z,18.83
2018-09-04T04:39:46.345Z,17.67
2018-09-04T04:42:14.639Z,24.03
2018-09-04T04:44:42.931Z,16.30
2018-09-04T04:47:11.273Z,19.00
2018-09-04T04:49:39.526Z,17.60
2018-09-04T04:52:07.761Z,15.83
2018-09-04T04:55:00.865Z,16.67
2018-09-04T04:57:38.168Z,17.87
2018-09-04T05:00:09.586Z,16.40
2018-09-04T05:02:37.909Z,18.47
2018-09-04T05:05:06.883Z,19.83
2018-09-04T05:07:35.675Z,18.73
2018-09-04T05:10:04.114Z,16.17
2018-09-04T05:12:32.583Z,19.27
2018-09-04T05:15:00.986Z,18.57
2018-09-04T05:17:29.461Z,19.17
2018-09-04T05:19:57.844Z,21.03
2018-09-04T05:22:26.167Z,17.47
2018-09-04T05:24:54.856Z,19.40
2018-09-04T05:27:23.320Z,22.03
2018-09-04T05:29:51.707Z,23.47
2018-09-04T05:32:25.239Z,26.53
2018-09-04T05:34:53.659Z,24.70
2018-09-04T05:37:22.059Z,25.40
2018-09-04T05:39:50.731Z,24.10
2018-09-04T05:42:26.433Z,22.93
2018-09-04T05:44:54.639Z,24.57
2018-09-04T05:47:33.075Z,27.57
2018-09-04T05:50:18.854Z,22.87
2018-09-04T05:52:47.257Z,22.20
2018-09-04T05:55:43.511Z,20.43
2018-09-04T05:58:54.158Z,16.83
2018-09-04T06:01:22.895Z,21.57
2018-09-04T06:03:51.353Z,21.33
2018-09-04T06:06:19.586Z,23.83
2018-09-04T06:08:47.937Z,30.37
2018-09-04T06:11:16.009Z,25.67
2018-09-04T06:13:44.229Z,23.97
2018-09-04T06:16:12.353Z,28.33
2018-09-04T06:18:40.527Z,28.27
2018-09-04T06:21:08.635Z,24.73
2018-09-04T06:23:36.732Z,23.50
2018-09-04T06:26:04.847Z,27.07
2018-09-04T06:28:33.122Z,29.40
2018-09-04T06:31:01.333Z,25.17
2018-09-04T06:33:29.549Z,25.57
2018-09-04T06:35:57.917Z,26.73
2018-09-04T06:38:26.294Z,29.17
2018-09-04T06:40:54.513Z,29.43
2018-09-04T06:43:22.726Z,30.03
2018-09-04T06:45:51.007Z,25.87
2018-09-04T06:48:25.569Z,29.33
2018-09-04T06:51:19.619Z,27.40
2018-09-04T06:53:47.935Z,31.63
2018-09-04T06:56:16.141Z,32.00
2018-09-04T06:58:44.565Z,27.53
2018-09-04T07:01:12.789Z,27.53
2018-09-04T07:03:41.201Z,31.73
2018-09-04T07:06:09.895Z,33.37
2018-09-04T07:08:38.375Z,28.93
2018-09-04T07:11:06.822Z,28.93
2018-09-04T07:13:35.042Z,30.90
2018-09-04T07:16:03.720Z,32.87
2018-09-04T07:18:32.471Z,26.03
2018-09-04T07:21:00.853Z,23.17
2018-09-04T07:23:29.366Z,27.90
2018-09-04T07:25:58.307Z,26.60
2018-09-04T07:28:26.817Z,24.87
2018-09-04T07:30:55.506Z,23.10
2018-09-04T07:33:25.492Z,25.63
2018-09-04T07:35:54.062Z,23.47
2018-09-04T07:38:22.845Z,24.77
2018-09-04T07:40:51.367Z,25.83
2018-09-04T07:43:20.143Z,23.30
2018-09-04T07:45:48.302Z,23.80
2018-09-04T07:48:16.568Z,20.03
2018-09-04T07:50:44.647Z,22.93
2018-09-04T07:53:12.742Z,21.03
2018-09-04T07:55:41.053Z,22.70
2018-09-04T07:58:09.561Z,19.37
2018-09-04T08:00:38.118Z,21.50
2018-09-04T08:03:06.426Z,19.60
2018-09-04T08:05:34.911Z,21.37
2018-09-04T08:08:03.349Z,21.27
2018-09-04T08:10:35.947Z,19.73
2018-09-04T08:13:06.275Z,21.13
2018-09-04T08:15:35.218Z,17.93
2018-09-04T08:18:03.277Z,16.53
2018-09-04T08:20:31.464Z,18.20
2018-09-04T08:22:59.487Z,18.37
2018-09-04T08:25:27.778Z,16.37
2018-09-04T08:27:55.866Z,18.47
2018-09-04T08:30:24.264Z,21.87
2018-09-04T08:32:52.466Z,19.57
2018-09-04T08:35:20.530Z,19.70
2018-09-04T08:37:50.928Z,19.57
2018-09-04T08:40:19.144Z,15.30
2018-09-04T08:42:47.282Z,14.20
2018-09-04T08:45:15.499Z,15.37
2018-09-04T08:47:43.841Z,16.70
2018-09-04T08:50:12.074Z,13.57
2018-09-04T08:52:40.383Z,11.73
2018-09-04T08:55:08.715Z,14.50
2018-09-04T08:57:36.763Z,6.57
2018-09-04T09:00:05.350Z,12.13
2018-09-04T09:02:33.580Z,9.13
2018-09-04T09:05:01.729Z,5.83
2018-09-04T09:07:29.904Z,8.30
2018-09-04T09:09:58.172Z,12.70
2018-09-04T09:12:26.335Z,11.77
2018-09-04T09:14:54.448Z,8.00
2018-09-04T09:17:22.719Z,10.23
2018-09-04T09:19:50.883Z,9.57
2018-09-04T09:22:19.147Z,8.80
2018-09-04T09:24:47.384Z,12.00
2018-09-04T09:27:15.794Z,8.77
2018-09-04T09:29:44.379Z,9.13
2018-09-04T09:32:12.654Z,7.87
2018-09-04T09:34:40.971Z,9.30
2018-09-04T09:37:09.311Z,9.83
2018-09-04T09:39:37.423Z,10.60
2018-09-04T09:42:05.469Z,8.67
2018-09-04T09:44:33.801Z,8.60
2018-09-04T09:47:04.189Z,8.30
2018-09-04T09:49:33.227Z,8.78
2018-09-04T09:52:01.510Z,6.75
2018-09-04T09:54:29.803Z,6.97
2018-09-04T09:56:58.927Z,7.10
2018-09-04T09:59:28.889Z,6.65
2018-09-04T10:02:02.882Z,5.28
2018-09-04T10:04:31.009Z,6.28
2018-09-04T10:06:59.177Z,6.00
2018-09-04T10:09:27.335Z,7.87
2018-09-04T10:11:55.491Z,5.95
2018-09-04T10:14:23.679Z,5.70
2018-09-04T10:16:52.005Z,4.73
2018-09-04T10:19:20.208Z,5.83
2018-09-04T10:21:48.558Z,4.95
2018-09-04T10:24:16.879Z,4.33
2018-09-04T10:26:45.328Z,6.20
2018-09-04T10:29:13.565Z,6.70
2018-09-04T10:31:41.841Z,5.72
2018-09-04T10:34:10.202Z,5.37
2018-09-04T10:36:38.525Z,5.35
2018-09-04T10:39:12.943Z,6.37
2018-09-04T10:41:41.225Z,7.80
2018-09-04T10:44:09.634Z,6.87
2018-09-04T10:46:37.828Z,5.42
2018-09-04T10:49:06.128Z,4.58
2018-09-04T10:51:34.324Z,6.10
2018-09-04T10:54:02.612Z,5.20
2018-09-04T10:56:30.858Z,4.28
2018-09-04T10:58:59.075Z,4.10
2018-09-04T11:01:27.166Z,5.17
2018-09-04T11:03:55.508Z,5.10
2018-09-04T11:06:23.855Z,6.22
2018-09-04T11:08:52.212Z,4.30
2018-09-04T11:11:20.651Z,5.67
2018-09-04T11:13:49.133Z,4.25
2018-09-04T11:16:17.833Z,4.80
2018-09-04T11:18:46.168Z,10.70
2018-09-04T11:21:14.318Z,4.28
2018-09-04T11:23:42.510Z,4.97
2018-09-04T11:26:10.751Z,7.05
2018-09-04T11:28:42.561Z,5.35
2018-09-04T11:31:10.945Z,5.62
2018-09-04T11:33:39.180Z,6.28
2018-09-04T11:36:07.331Z,6.95
2018-09-04T11:38:35.426Z,6.40
2018-09-04T11:41:03.941Z,6.08
2018-09-04T11:43:34.021Z,5.53
2018-09-04T11:46:02.427Z,5.25
2018-09-04T11:48:30.647Z,6.62
2018-09-04T11:50:59.307Z,6.37
2018-09-04T11:53:27.537Z,6.25
2018-09-04T11:55:55.967Z,6.10
2018-09-04T11:58:24.063Z,5.05
2018-09-04T12:00:52.333Z,4.12
2018-09-04T12:03:20.806Z,4.97
2018-09-04T12:05:49.073Z,4.50
2018-09-04T12:08:17.188Z,4.87
2018-09-04T12:10:45.665Z,5.95
2018-09-04T12:13:18.377Z,7.08
2018-09-04T12:15:46.489Z,5.12
2018-09-04T12:18:14.733Z,5.17
2018-09-04T12:20:44.608Z,6.97
2018-09-04T12:23:13.019Z,4.45
2018-09-04T12:25:41.974Z,5.65
2018-09-04T12:28:10.147Z,6.42
2018-09-04T12:30:38.641Z,4.90
2018-09-04T12:33:07.221Z,5.08
2018-09-04T12:35:35.824Z,5.17
2018-09-04T12:38:04.917Z,5.67
2018-09-04T12:40:33.372Z,4.17
2018-09-04T12:43:02.799Z,4.78
2018-09-04T12:45:36.999Z,4.75
2018-09-04T12:48:05.331Z,6.00
2018-09-04T12:50:34.461Z,4.62
2018-09-04T12:53:02.814Z,4.47
2018-09-04T12:55:31.469Z,4.47
2018-09-04T12:58:00.390Z,4.30
2018-09-04T13:00:28.633Z,3.22
2018-09-04T13:02:57.265Z,4.40
2018-09-04T13:05:25.601Z,4.30
2018-09-04T13:07:53.764Z,4.12
2018-09-04T13:10:21.954Z,3.65
2018-09-04T13:12:50.121Z,3.30
2018-09-04T13:15:18.508Z,3.83
2018-09-04T13:17:46.789Z,5.37
2018-09-04T13:20:15.009Z,4.72
2018-09-04T13:22:43.220Z,5.65
2018-09-04T13:25:11.560Z,4.25
2018-09-04T13:27:39.672Z,5.70
2018-09-04T13:30:09.369Z,4.10
2018-09-04T13:32:38.663Z,6.72
2018-09-04T13:35:08.031Z,5.35
2018-09-04T13:37:36.352Z,5.25
2018-09-04T13:40:04.955Z,6.15
2018-09-04T13:42:33.337Z,4.25
2018-09-04T13:45:01.870Z,3.80
2018-09-04T13:47:33.449Z,5.33
2018-09-04T13:50:01.756Z,4.42
2018-09-04T13:52:31.972Z,4.92
2018-09-04T13:55:00.539Z,5.12
2018-09-04T13:57:29.392Z,3.95
2018-09-04T13:59:57.713Z,6.10
2018-09-04T14:02:26.394Z,3.37
2018-09-04T14:04:54.549Z,6.22
2018-09-04T14:07:22.914Z,6.65
2018-09-04T14:09:51.182Z,6.25
2018-09-04T14:12:19.491Z,4.87
2018-09-04T14:17:46.138Z,4.55
2018-09-04T14:20:14.319Z,5.20
2018-09-04T14:22:42.499Z,4.72
2018-09-04T14:25:10.820Z,4.15
2018-09-04T14:27:38.987Z,4.42
2018-09-04T14:30:21.163Z,6.50
2018-09-04T14:32:35.512Z,4.28
2018-09-04T14:35:03.894Z,6.62
2018-09-04T14:37:32.321Z,4.33
2018-09-04T14:40:08.175Z,4.62
2018-09-04T14:42:36.461Z,3.98
2018-09-04T14:45:04.798Z,4.47
2018-09-04T14:47:33.060Z,4.17
2018-09-04T14:50:01.341Z,4.83
2018-09-04T14:52:35.801Z,4.72
2018-09-04T14:55:04.141Z,3.87
2018-09-04T14:57:32.344Z,4.78
2018-09-04T15:00:00.491Z,3.75
2018-09-04T15:02:28.720Z,7.62
2018-09-04T15:04:56.781Z,7.33
2018-09-04T15:07:25.085Z,11.85
2018-09-04T15:09:53.226Z,8.38
2018-09-04T15:12:21.440Z,5.37
2018-09-04T15:14:49.786Z,7.25
2018-09-04T15:17:17.997Z,4.30
2018-09-04T15:19:46.329Z,4.72
2018-09-04T15:22:14.704Z,4.95
2018-09-04T15:24:43.005Z,5.35
2018-09-04T15:27:11.419Z,6.15
2018-09-04T15:29:39.710Z,4.60
2018-09-04T15:32:08.112Z,4.45
2018-09-04T15:34:36.415Z,5.87
2018-09-04T15:37:04.757Z,4.15
2018-09-04T15:39:33.123Z,3.52
2018-09-04T15:42:01.237Z,4.90
2018-09-04T15:44:29.441Z,4.78
2018-09-04T15:46:57.798Z,3.87
2018-09-04T15:49:31.452Z,4.03
2018-09-04T15:51:59.636Z,3.72
2018-09-04T15:54:29.636Z,3.52
2018-09-04T15:56:58.447Z,6.53
2018-09-04T15:59:27.368Z,4.40
2018-09-04T16:01:55.919Z,5.87
2018-09-04T16:04:24.384Z,3.70
2018-09-04T16:06:52.809Z,4.22
2018-09-04T16:09:21.188Z,4.35
2018-09-04T16:11:49.575Z,3.70
2018-09-04T16:14:17.834Z,4.15
2018-09-04T16:16:46.087Z,5.10
2018-09-04T16:19:14.348Z,4.70
2018-09-04T16:21:42.473Z,4.73
2018-09-04T16:24:11.894Z,8.37
2018-09-04T16:26:40.493Z,3.37
2018-09-04T16:29:08.937Z,4.63
2018-09-04T16:31:37.837Z,4.27
2018-09-04T16:34:06.408Z,4.57
2018-09-04T16:36:34.856Z,5.17
2018-09-04T16:39:04.676Z,6.53
2018-09-04T16:41:33.043Z,3.63
2018-09-04T16:44:01.192Z,4.83
2018-09-04T16:46:30.056Z,5.17
2018-09-04T16:48:58.388Z,4.53
2018-09-04T16:51:26.912Z,5.80
2018-09-04T16:53:55.442Z,5.53
2018-09-04T16:56:23.670Z,4.80
2018-09-04T16:58:51.958Z,4.97
2018-09-04T17:01:20.227Z,5.17
2018-09-04T17:03:48.562Z,6.23
2018-09-04T17:06:16.943Z,4.17
2018-09-04T17:08:45.464Z,4.90
2018-09-04T17:11:13.750Z,4.80
2018-09-04T17:13:42.145Z,4.53
2018-09-04T17:16:10.421Z,4.63
2018-09-04T17:18:38.717Z,4.93
2018-09-04T17:21:06.896Z,5.30
2018-09-04T17:23:35.172Z,7.20
2018-09-04T17:26:03.392Z,6.27
2018-09-04T17:28:32.517Z,7.17
2018-09-04T17:31:01.193Z,6.70
2018-09-04T17:33:29.532Z,5.33
2018-09-04T17:35:57.795Z,4.63
2018-09-04T17:38:26.132Z,4.80
2018-09-04T17:40:54.530Z,6.53
2018-09-04T17:43:23.252Z,4.70
2018-09-04T17:45:51.656Z,4.80
2018-09-04T17:48:20.234Z,5.60
2018-09-04T17:50:48.843Z,4.93
2018-09-04T17:53:17.257Z,4.77
2018-09-04T17:55:45.497Z,4.23
2018-09-04T17:58:14.119Z,3.47
2018-09-04T18:00:42.439Z,6.17
2018-09-04T18:03:10.688Z,6.53
2018-09-04T18:05:40.755Z,6.30
2018-09-04T18:08:09.171Z,4.07
2018-09-04T18:10:37.496Z,4.50
2018-09-04T18:13:05.697Z,3.87
2018-09-04T18:15:34.066Z,5.33
2018-09-04T18:18:02.349Z,4.97
2018-09-04T18:20:30.768Z,4.60
2018-09-04T18:22:59.090Z,3.73
2018-09-04T18:25:27.803Z,3.83
2018-09-04T18:27:55.907Z,5.53
2018-09-04T18:30:24.118Z,5.80
2018-09-04T18:32:52.487Z,4.27
2018-09-04T18:35:20.786Z,4.40
2018-09-04T18:37:49.222Z,6.17
2018-09-04T18:40:17.584Z,4.93
2018-09-04T18:42:46.196Z,5.63
2018-09-04T18:45:25.553Z,5.33
2018-09-04T18:47:54.201Z,6.77
2018-09-04T18:50:22.538Z,4.63
2018-09-04T18:52:50.904Z,6.33
2018-09-04T18:55:19.235Z,5.67
2018-09-04T18:57:47.646Z,5.37
2018-09-04T19:00:15.985Z,4.63
2018-09-04T19:02:44.078Z,5.63
2018-09-04T19:05:12.410Z,5.37
2018-09-04T19:07:40.714Z,6.90
2018-09-04T19:10:09.065Z,4.53
2018-09-04T19:12:37.335Z,5.83
2018-09-04T19:15:05.611Z,4.77
2018-09-04T19:18:12.035Z,5.00
2018-09-04T19:20:40.377Z,4.43
2018-09-04T19:23:08.865Z,3.90
2018-09-04T19:25:37.379Z,7.03
2018-09-04T19:28:05.598Z,4.77
2018-09-04T19:30:34.115Z,5.30
2018-09-04T19:33:02.355Z,6.37
2018-09-04T19:35:30.900Z,6.23
2018-09-04T19:37:59.529Z,4.10
2018-09-04T19:40:27.842Z,4.93
2018-09-04T19:42:56.337Z,4.70
2018-09-04T19:45:24.726Z,7.07
2018-09-04T19:47:53.331Z,5.67
2018-09-04T19:50:21.673Z,5.87
2018-09-04T19:52:49.973Z,4.67
2018-09-04T19:55:18.431Z,6.50
2018-09-04T19:57:46.804Z,5.30
2018-09-04T20:00:15.206Z,4.70
2018-09-04T20:02:43.632Z,6.43
2018-09-04T20:05:11.982Z,5.53
2018-09-04T20:07:40.126Z,5.80
2018-09-04T20:10:08.681Z,5.23
2018-09-04T20:12:37.145Z,4.77
2018-09-04T20:15:05.622Z,6.83
2018-09-04T20:17:33.939Z,4.77
2018-09-04T20:20:02.157Z,5.17
2018-09-04T20:22:30.411Z,5.00
2018-09-04T20:24:58.619Z,5.33
2018-09-04T20:27:27.191Z,6.00
2018-09-04T20:29:55.479Z,6.13
2018-09-04T20:32:24.436Z,5.43
2018-09-04T20:34:52.664Z,5.27
2018-09-04T20:37:20.985Z,5.13
2018-09-04T20:39:49.350Z,5.50
2018-09-04T20:42:17.466Z,4.97
2018-09-04T20:44:45.880Z,4.63
2018-09-04T20:47:14.403Z,6.60
2018-09-04T20:49:42.631Z,4.57
2018-09-04T20:52:10.916Z,5.17
2018-09-04T20:54:39.153Z,3.97
2018-09-04T20:57:25.730Z,5.27
2018-09-04T21:00:07.234Z,5.73
2018-09-04T21:02:46.537Z,5.40
2018-09-04T21:05:26.704Z,4.27
2018-09-04T21:08:11.111Z,6.07
2018-09-04T21:10:39.812Z,6.50
2018-09-04T21:13:08.366Z,3.83
2018-09-04T21:15:36.626Z,5.07
2018-09-04T21:18:05.263Z,4.13
2018-09-04T21:20:33.529Z,3.60
2018-09-04T21:23:01.792Z,4.80
2018-09-04T21:25:29.888Z,6.20
2018-09-04T21:27:57.860Z,4.53
2018-09-04T21:30:25.988Z,4.90
2018-09-04T21:32:53.998Z,2.63
2018-09-04T21:35:22.080Z,4.27
2018-09-04T21:37:50.162Z,2.97
2018-09-04T21:40:18.395Z,3.37
2018-09-04T21:42:46.683Z,4.17
2018-09-04T21:45:14.799Z,3.33
2018-09-04T21:47:42.941Z,2.80
2018-09-04T21:50:11.366Z,3.43
2018-09-04T21:52:39.480Z,2.93
2018-09-04T21:55:07.860Z,5.37
2018-09-04T21:57:35.897Z,2.80
2018-09-04T22:00:05.101Z,6.87
2018-09-04T22:02:33.157Z,4.40
2018-09-04T22:05:01.554Z,3.50
2018-09-04T22:07:29.982Z,4.20
2018-09-04T22:09:58.314Z,2.63
2018-09-04T22:12:26.661Z,2.97
2018-09-04T22:14:54.989Z,2.37
2018-09-04T22:17:23.056Z,2.80
2018-09-04T22:19:51.107Z,2.37
2018-09-04T22:22:19.104Z,2.67
2018-09-04T22:24:47.125Z,2.30
2018-09-04T22:27:15.342Z,4.37
2018-09-04T22:29:43.650Z,3.27
2018-09-04T22:32:12.898Z,2.67
2018-09-04T22:34:40.916Z,2.57
2018-09-04T22:37:09.179Z,2.83
2018-09-04T22:39:37.207Z,3.43
2018-09-04T22:42:05.361Z,4.83
2018-09-04T22:44:33.622Z,2.77
2018-09-04T22:47:01.904Z,1.83
2018-09-04T22:49:30.377Z,2.80
2018-09-04T22:51:59.473Z,2.77
2018-09-04T22:54:27.591Z,2.50
2018-09-04T22:56:55.701Z,2.70
2018-09-04T22:59:23.952Z,2.27
2018-09-04T23:01:51.972Z,3.20
2018-09-04T23:04:20.103Z,3.73
2018-09-04T23:06:48.107Z,2.57
2018-09-04T23:09:16.193Z,2.80
2018-09-04T23:11:44.234Z,2.20
2018-09-04T23:14:12.295Z,3.07
2018-09-04T23:16:40.369Z,3.17
2018-09-04T23:19:08.525Z,2.53
2018-09-04T23:21:36.760Z,3.40
2018-09-04T23:24:05.149Z,5.93
2018-09-04T23:26:33.336Z,2.03
2018-09-04T23:29:01.499Z,2.23
2018-09-04T23:31:29.635Z,1.67
2018-09-04T23:33:57.804Z,3.43
2018-09-04T23:36:25.922Z,2.07
2018-09-04T23:38:54.046Z,2.70
2018-09-04T23:41:22.342Z,2.37
2018-09-04T23:43:50.521Z,2.37
2018-09-04T23:46:18.604Z,3.23
2018-09-04T23:48:46.754Z,2.23
2018-09-04T23:51:14.971Z,2.67
2018-09-04T23:53:43.066Z,2.20
2018-09-04T23:56:11.280Z,2.20
2018-09-04T23:58:39.386Z,4.20
